< < Back
Terminal Aerodrome Forecast


Current Version              Previous Versions:   1  2  3  4  5  6  7  8  9  

Terminal Aerodrome Forecast

219
FTUS42 KTAE 011528 AAB
TAFVLD
TAF AMD
KVLD 011528Z 0115/0212 07003KT P6SM -RA SCT011 BKN025 OVC045
     FM011700 17004KT P6SM VCTS BKN035CB
     FM011900 18010KT 3SM TSRA SCT025CB BKN040
     FM020100 22008KT P6SM -SHRA VCTS SCT040CB BKN100=



Latest METAR

792
SAUS70 KWBC 020800 RRL
MTRVLD
METAR KVLD 020753Z AUTO 12004KT 10SM BKN013 OVC022 25/24 A2986 RMK AO2
RAE0654 SLP116 P0000 T02500244 TSNO


USA.gov is the U.S. government's official web portal to all federal, state and local government web resources and services.